Aeroporto :
LOGIN :

Iscrizione | Disclaimer

   EN    FR    IT 

 










Sommario :    VFR   VFR Marginale   IFR   IFR Intensivo   IFR Molto Intensivo
Visibilità : 
Base nubi : 
>= 8 km
>= 3000ft
5 / 8 km
1000 / 3000 ft
1500m / 5 km
500 / 1000 ft
800 / 1500m
200 / 500 ft
< 800m
< 200 ft
Simboli :   Temporali  Nebbia  Neve Forte  Precipitazioni Forti  Vento > 20 kt
SIGMETs :   Varie  Temporali  Ghiacco  Turbolenza  Onda orograficha  Ceneri Vulcaniche






- Altitudine del aeroporto : 1496 ft
- Codice IATA : SBZ


LRSB - Sibiu

ULTIMO METAR :
  • 310900Z 29015KT 9999 -SHRA SCT022 SCT047CB OVC063 11/09 Q1015 R27/19//95

METARs OBSOLETI :
  • 310830Z 29012KT 9999 -SHRA BKN027 SCT044CB 12/09 Q1015 R27/19//95
  • 310800Z 06006KT 9999 SCT029 BKN055 09/07 Q1015 R27/19//95
  • 310730Z VRB02KT 9999 FEW028 BKN064 08/07 Q1015 R27/19//95
  • 310700Z VRB02KT 9999 SCT026 OVC040 07/06 Q1016 R27/19//95
  • 310630Z VRB02KT 9999 SCT025 OVC037 07/06 Q1016 R27/29//95

TAF TAF LRSB
Valido dal 31 a 06 ore il 01 a 06 ore UTC


310500Z 3106/0106 VRB04KT 9999 -RA BKN030
BECMG 3106/3108 32010KT
TEMPO 3108/3114 32015G25KT 5000 SHRA BKN010 SCT025CB OVC030
BECMG 3116/3118 VRB04KT
TEMPO 0101/0106 3000 BR BKN010



MetMap, La meteo Aeronautica in un colpo d'occhio ! - Copyright ORBIFLY Dicembre 2007 - Disclaimer

ORBIFLY MET'MAP TEAM :

Programmazione e sviluppo : Alexandra Zaïnal
Concezione : Baudouin d'Aumeries
Aiuto per la programmazione : Marc-Olivier Méhu
Supporto tecnico e logistico : Manuel Goepfert
Aiuto per la traduzione : Arnaldo La Scala

Contatto : metmap@orbifly.com




FONTI E CREDITI :

   NOAA